メインページ
METAR-TAF:

METAR-TAF

空港 :

プリンセス・ジュリアナ国際空港

シント・マールテン, オランダ領アンティル

緯度: 18-03N, 経度: 063-07W, 海抜: 4m

現時点の気象観測

当レポートは27分前の04:00(UTC)に作成
の風 12kt、北東から東/南東の間で変化する
気温 26°C
湿度 74%
気圧 1020 hPa
視程10km以上
高度1900ftの雲はほとんどない

METAR: TNCM 150400Z 08012KT 050V120 9999 FEW019 26/21 Q1020 RMK A3014

時間: 00:27 (04:27 UTC)

予報

当レポートは4時間47分前の23:40(UTC)に作成
予報は15日の 00時(UTC)から 15日の 24時(UTC)まで有効
の風 14kt
視程: 10km
高度1800ftの雲は散在している
高度4000ftの雲は散在している
高度5000ftの雲は散在している
近辺でにわか雨

TAF: TNCM 142340Z 1500/1524 09014KT P6SM VCSH SCT018 SCT040 SCT050

4,000以上の空港の気象観測と天気予報(METAR報とTAF報)

利用可能な観測所は地図上に黄色い丸と赤い丸で示す。

丸の上にカーソルを重ねると観測所名を参照できる。

次にクリックすると気象観測と天気予報を参照できる。

マップの切り替え:黒色「×」印の緑ボタンをクリックして拡大、「-」印の緑ボタンをクリックして縮小、緑色の三角印をクリックして隣りの地図に切り替え


METAR-TAF: